createdAt,value
2022-12-15T00:02:35.468Z,18.42
2022-12-15T00:05:22.179Z,20.17
2022-12-15T00:08:08.001Z,19.15
2022-12-15T00:10:53.842Z,20.20
2022-12-15T00:13:39.684Z,20.95
2022-12-15T00:16:25.942Z,19.15
2022-12-15T00:19:11.860Z,20.98
2022-12-15T00:21:57.737Z,19.85
2022-12-15T00:24:43.542Z,19.63
2022-12-15T00:27:29.481Z,19.92
2022-12-15T00:30:15.314Z,19.23
2022-12-15T00:33:01.409Z,19.95
2022-12-15T00:35:47.279Z,22.17
2022-12-15T00:38:34.251Z,18.83
2022-12-15T00:41:02.215Z,21.40
2022-12-15T00:43:32.007Z,19.75
2022-12-15T00:46:18.791Z,18.52
2022-12-15T00:48:46.635Z,20.27
2022-12-15T00:51:15.040Z,19.25
2022-12-15T00:54:01.051Z,22.13
2022-12-15T00:56:47.394Z,19.27
2022-12-15T00:59:33.563Z,20.95
2022-12-15T01:02:19.321Z,19.25
2022-12-15T01:05:04.883Z,21.08
2022-12-15T01:07:50.739Z,18.85
2022-12-15T01:10:37.993Z,17.67
2022-12-15T01:13:24.320Z,21.20
2022-12-15T01:16:10.380Z,20.25
2022-12-15T01:18:56.157Z,18.17
2022-12-15T01:21:25.205Z,18.52
2022-12-15T01:23:53.279Z,18.73
2022-12-15T01:26:20.702Z,21.13
2022-12-15T01:28:49.971Z,17.50
2022-12-15T01:31:17.084Z,20.65
2022-12-15T01:33:44.206Z,20.15
2022-12-15T01:36:11.974Z,20.75
2022-12-15T01:38:39.333Z,19.90
2022-12-15T01:41:10.296Z,19.45
2022-12-15T01:43:40.028Z,22.02
2022-12-15T01:46:18.055Z,17.88
2022-12-15T01:48:53.992Z,18.88
2022-12-15T01:51:35.583Z,19.52
2022-12-15T01:54:14.992Z,19.08
2022-12-15T01:56:46.833Z,20.85
2022-12-15T01:59:30.712Z,18.73
2022-12-15T02:01:58.486Z,18.02
2022-12-15T02:04:26.017Z,17.63
2022-12-15T02:06:53.340Z,20.77
2022-12-15T02:09:23.029Z,21.40
2022-12-15T02:12:09.250Z,18.95
2022-12-15T02:15:00.044Z,18.13
2022-12-15T02:17:58.792Z,16.05
2022-12-15T02:20:46.624Z,16.95
2022-12-15T02:23:28.951Z,19.27
2022-12-15T02:26:20.950Z,20.33
2022-12-15T02:29:04.285Z,17.92
2022-12-15T02:31:50.599Z,19.35
2022-12-15T02:34:40.619Z,18.88
2022-12-15T02:37:15.455Z,19.42
2022-12-15T02:39:43.322Z,19.40
2022-12-15T02:42:12.221Z,20.85
2022-12-15T02:44:47.923Z,19.88
2022-12-15T02:47:39.234Z,18.40
2022-12-15T02:50:24.770Z,20.42
2022-12-15T02:53:16.297Z,21.17
2022-12-15T02:55:50.362Z,18.75
2022-12-15T02:58:48.398Z,18.30
2022-12-15T03:01:30.703Z,18.98
2022-12-15T03:04:00.003Z,16.50
2022-12-15T03:06:27.614Z,18.30
2022-12-15T03:08:54.866Z,22.02
2022-12-15T03:11:22.417Z,17.38
2022-12-15T03:13:49.805Z,17.63
2022-12-15T03:16:17.348Z,18.98
2022-12-15T03:18:44.498Z,17.38
2022-12-15T03:21:11.648Z,21.02
2022-12-15T03:23:39.253Z,20.35
2022-12-15T03:26:06.848Z,18.77
2022-12-15T03:28:34.173Z,18.75
2022-12-15T03:31:01.601Z,17.98
2022-12-15T03:33:29.299Z,19.33
2022-12-15T03:35:56.985Z,16.98
2022-12-15T03:38:24.143Z,20.63
2022-12-15T03:40:51.381Z,18.25
2022-12-15T03:43:18.594Z,17.05
2022-12-15T03:45:45.822Z,19.85
2022-12-15T03:48:13.305Z,14.90
2022-12-15T03:50:40.992Z,17.75
2022-12-15T03:53:08.517Z,18.27
2022-12-15T03:55:35.578Z,19.63
2022-12-15T03:58:03.089Z,15.55
2022-12-15T04:00:30.504Z,18.67
2022-12-15T04:02:57.823Z,17.30
2022-12-15T04:05:33.460Z,17.63
2022-12-15T04:08:01.472Z,17.75
2022-12-15T04:10:34.480Z,18.05
2022-12-15T04:13:07.104Z,18.40
2022-12-15T04:15:37.065Z,18.40
2022-12-15T04:18:07.583Z,18.10
2022-12-15T04:20:34.806Z,19.33
2022-12-15T04:23:02.174Z,16.95
2022-12-15T04:25:47.763Z,15.95
2022-12-15T04:28:33.531Z,20.63
2022-12-15T04:31:34.112Z,17.35
2022-12-15T04:34:23.928Z,21.42
2022-12-15T04:37:12.749Z,15.40
2022-12-15T04:40:01.720Z,18.73
2022-12-15T04:42:50.248Z,17.20
2022-12-15T04:45:40.627Z,16.52
2022-12-15T04:48:26.871Z,16.80
2022-12-15T04:51:12.745Z,17.70
2022-12-15T04:53:58.515Z,15.85
2022-12-15T04:56:44.351Z,17.88
2022-12-15T04:59:30.290Z,16.70
2022-12-15T05:02:16.348Z,15.32
2022-12-15T05:05:02.199Z,16.65
2022-12-15T05:07:47.821Z,17.75
2022-12-15T05:10:33.860Z,18.48
2022-12-15T05:13:26.921Z,17.65
2022-12-15T05:16:12.879Z,17.92
2022-12-15T05:18:58.655Z,17.00
2022-12-15T05:21:44.507Z,15.88
2022-12-15T05:24:30.345Z,18.27
2022-12-15T05:27:16.060Z,15.60
2022-12-15T05:30:02.000Z,16.70
2022-12-15T05:32:33.145Z,17.77
2022-12-15T05:35:01.420Z,17.92
2022-12-15T05:37:30.060Z,16.83
2022-12-15T05:39:57.187Z,14.80
2022-12-15T05:42:24.383Z,16.50
2022-12-15T05:44:51.833Z,16.92
2022-12-15T05:47:18.896Z,17.23
2022-12-15T05:49:46.041Z,16.92
2022-12-15T05:52:13.260Z,15.68
2022-12-15T05:54:40.272Z,15.02
2022-12-15T05:57:07.379Z,15.82
2022-12-15T05:59:34.428Z,16.88
2022-12-15T06:02:01.695Z,16.13
2022-12-15T06:04:29.202Z,15.38
2022-12-15T06:06:56.404Z,12.50
2022-12-15T06:09:23.573Z,14.82
2022-12-15T06:11:50.873Z,14.95
2022-12-15T06:14:18.020Z,13.63
2022-12-15T06:16:50.821Z,14.55
2022-12-15T06:19:19.351Z,15.68
2022-12-15T06:21:46.478Z,15.52
2022-12-15T06:24:13.736Z,16.58
2022-12-15T06:26:41.145Z,15.52
2022-12-15T06:29:10.980Z,14.15
2022-12-15T06:31:40.660Z,15.90
2022-12-15T06:34:11.114Z,16.35
2022-12-15T06:36:39.358Z,16.88
2022-12-15T06:39:10.814Z,15.60
2022-12-15T06:41:38.758Z,14.68
2022-12-15T06:44:06.109Z,16.13
2022-12-15T06:46:35.272Z,16.05
2022-12-15T06:49:02.881Z,13.95
2022-12-15T06:51:30.589Z,16.30
2022-12-15T06:53:58.071Z,15.50
2022-12-15T06:56:32.933Z,15.30
2022-12-15T06:59:02.072Z,13.73
2022-12-15T07:01:30.095Z,14.27
2022-12-15T07:04:00.408Z,32.97
2022-12-15T07:06:29.902Z,54.78
2022-12-15T07:08:57.101Z,29.75
2022-12-15T07:11:24.848Z,15.88
2022-12-15T07:13:53.076Z,18.63
2022-12-15T07:16:22.337Z,27.58
2022-12-15T07:18:49.991Z,21.63
2022-12-15T07:21:17.933Z,51.47
2022-12-15T07:23:54.636Z,53.03
2022-12-15T07:26:23.813Z,67.00
2022-12-15T07:28:51.237Z,94.47
2022-12-15T07:31:18.564Z,31.33
2022-12-15T07:33:47.669Z,21.58
2022-12-15T07:36:14.954Z,16.33
2022-12-15T07:38:42.000Z,17.45
2022-12-15T07:41:10.341Z,15.60
2022-12-15T07:43:38.182Z,15.85
2022-12-15T07:46:06.295Z,13.43
2022-12-15T07:48:34.383Z,30.33
2022-12-15T07:51:11.110Z,20.75
2022-12-15T07:53:40.347Z,15.07
2022-12-15T07:56:09.624Z,15.77
2022-12-15T07:58:38.394Z,18.83
2022-12-15T08:01:13.332Z,16.83
2022-12-15T08:03:41.338Z,13.40
2022-12-15T08:06:11.643Z,14.80
2022-12-15T08:08:39.591Z,16.73
2022-12-15T08:11:12.277Z,18.15
2022-12-15T08:16:28.736Z,19.98
2022-12-15T08:18:57.464Z,21.55
2022-12-15T08:21:24.651Z,33.47
2022-12-15T08:23:52.021Z,56.88
2022-12-15T08:26:23.839Z,112.75
2022-12-15T08:31:23.316Z,109.25
2022-12-15T08:33:50.776Z,40.97
2022-12-15T08:36:19.761Z,44.45
2022-12-15T08:38:47.922Z,45.17
2022-12-15T08:41:23.226Z,39.88
2022-12-15T08:43:51.063Z,50.88
2022-12-15T08:46:21.113Z,45.75
2022-12-15T08:48:49.103Z,37.53
2022-12-15T08:51:17.392Z,46.33
2022-12-15T08:53:45.009Z,43.55
2022-12-15T08:56:16.165Z,39.80
2022-12-15T08:58:44.426Z,32.60
2022-12-15T09:01:20.541Z,28.10
2022-12-15T09:03:51.285Z,24.77
2022-12-15T09:06:21.198Z,25.83
2022-12-15T09:08:50.523Z,19.77
2022-12-15T09:11:18.402Z,20.95
2022-12-15T09:13:45.753Z,18.48
2022-12-15T09:16:15.893Z,19.23
2022-12-15T09:18:57.313Z,19.15
2022-12-15T09:21:26.896Z,17.92
2022-12-15T09:23:58.027Z,17.30
2022-12-15T09:26:25.301Z,17.60
2022-12-15T09:28:53.371Z,17.77
2022-12-15T09:31:26.728Z,19.15
2022-12-15T09:33:56.519Z,17.33
2022-12-15T09:36:25.003Z,17.40
2022-12-15T09:38:52.432Z,18.55
2022-12-15T09:41:29.832Z,17.85
2022-12-15T09:44:05.943Z,17.15
2022-12-15T09:46:57.217Z,17.33
2022-12-15T09:49:43.961Z,16.67
2022-12-15T09:52:14.554Z,19.20
2022-12-15T09:54:43.658Z,16.35
2022-12-15T09:57:33.551Z,17.73
2022-12-15T10:00:33.182Z,17.77
2022-12-15T10:03:28.373Z,17.88
2022-12-15T10:06:17.123Z,16.17
2022-12-15T10:09:10.406Z,15.98
2022-12-15T10:11:57.232Z,15.02
2022-12-15T10:14:44.458Z,15.15
2022-12-15T10:17:46.818Z,16.27
2022-12-15T10:20:22.249Z,15.70
2022-12-15T10:22:50.407Z,17.58
2022-12-15T10:28:17.666Z,16.45
2022-12-15T10:31:00.503Z,14.75
2022-12-15T10:33:47.145Z,16.27
2022-12-15T10:36:17.729Z,15.35
2022-12-15T10:38:50.259Z,17.40
2022-12-15T10:41:23.457Z,18.85
2022-12-15T10:43:53.231Z,18.65
2022-12-15T10:46:23.149Z,16.08
2022-12-15T10:48:52.768Z,17.85
2022-12-15T10:51:37.405Z,16.20
2022-12-15T10:54:10.508Z,16.98
2022-12-15T10:56:48.358Z,16.30
2022-12-15T10:59:23.814Z,19.60
2022-12-15T11:01:51.602Z,17.58
2022-12-15T11:04:32.879Z,18.42
2022-12-15T11:07:02.522Z,19.33
2022-12-15T11:09:35.843Z,16.90
2022-12-15T11:12:35.710Z,17.02
2022-12-15T11:15:03.281Z,17.70
2022-12-15T11:17:41.130Z,19.00
2022-12-15T11:20:18.703Z,18.83
2022-12-15T11:22:58.929Z,17.52
2022-12-15T11:25:39.144Z,30.98
2022-12-15T11:28:18.596Z,22.27
2022-12-15T11:31:25.815Z,16.77
2022-12-15T11:33:55.975Z,16.48
2022-12-15T11:36:57.087Z,18.17
2022-12-15T11:39:30.023Z,17.48
2022-12-15T11:42:22.047Z,15.00
2022-12-15T11:45:10.622Z,18.30
2022-12-15T11:47:43.504Z,14.70
2022-12-15T11:50:51.133Z,17.05
2022-12-15T11:53:32.885Z,16.25
2022-12-15T11:56:21.807Z,14.90
2022-12-15T11:59:16.472Z,15.43
2022-12-15T12:02:32.691Z,14.73
2022-12-15T12:05:31.127Z,13.38
2022-12-15T12:08:19.088Z,14.98
2022-12-15T12:11:07.691Z,14.52
2022-12-15T12:13:34.896Z,13.32
2022-12-15T12:16:26.644Z,12.18
2022-12-15T12:19:17.786Z,14.93
2022-12-15T12:21:50.936Z,14.52
2022-12-15T12:24:24.665Z,13.98
2022-12-15T12:26:59.681Z,12.93
2022-12-15T12:32:21.784Z,14.02
2022-12-15T12:40:51.394Z,12.52
2022-12-15T12:43:42.352Z,13.15
2022-12-15T12:46:58.704Z,13.00
2022-12-15T12:51:57.096Z,12.48
2022-12-15T12:54:33.856Z,11.38
2022-12-15T12:57:02.020Z,12.60
2022-12-15T12:59:29.131Z,12.95
2022-12-15T13:02:20.596Z,12.93
2022-12-15T13:05:32.814Z,14.27
2022-12-15T13:08:09.040Z,13.05
2022-12-15T13:10:41.774Z,12.57
2022-12-15T13:13:46.459Z,13.48
2022-12-15T13:16:27.102Z,12.70
2022-12-15T13:19:08.659Z,16.30
2022-12-15T13:21:42.122Z,15.93
2022-12-15T13:24:35.303Z,11.85
2022-12-15T13:27:15.874Z,12.20
2022-12-15T13:30:00.683Z,13.40
2022-12-15T13:32:34.122Z,16.02
2022-12-15T13:35:14.433Z,13.10
2022-12-15T13:37:53.040Z,12.70
2022-12-15T13:40:23.748Z,12.13
2022-12-15T13:43:10.229Z,13.27
2022-12-15T13:45:53.919Z,11.40
2022-12-15T13:48:33.445Z,12.43
2022-12-15T13:51:22.012Z,12.95
2022-12-15T13:54:00.796Z,11.90
2022-12-15T13:57:01.863Z,12.90
2022-12-15T13:59:40.859Z,12.48
2022-12-15T14:02:27.651Z,11.35
2022-12-15T14:05:07.780Z,14.10
2022-12-15T14:07:35.526Z,12.10
2022-12-15T14:10:06.543Z,13.00
2022-12-15T14:12:33.909Z,13.70
2022-12-15T14:15:01.332Z,13.60
2022-12-15T14:17:33.004Z,12.80
2022-12-15T14:20:12.583Z,12.18
2022-12-15T14:22:46.229Z,14.73
2022-12-15T14:25:26.197Z,16.15
2022-12-15T14:27:53.404Z,15.90
2022-12-15T14:30:23.607Z,14.63
2022-12-15T14:33:10.758Z,14.88
2022-12-15T14:35:44.851Z,14.07
2022-12-15T14:38:43.382Z,21.30
2022-12-15T14:41:25.413Z,24.40
2022-12-15T14:44:31.536Z,18.45
2022-12-15T14:46:50.297Z,15.18
2022-12-15T14:49:22.541Z,20.55
2022-12-15T14:51:54.805Z,24.17
2022-12-15T14:54:35.933Z,26.10
2022-12-15T14:57:15.861Z,75.03
2022-12-15T14:59:45.722Z,62.92
2022-12-15T15:02:15.771Z,52.63
2022-12-15T15:03:05.020Z,12.38
2022-12-15T15:03:06.627Z,16.85
2022-12-15T15:04:43.154Z,40.35
2022-12-15T15:07:18.758Z,15.48
2022-12-15T15:09:46.898Z,16.17
2022-12-15T15:12:23.146Z,17.20
2022-12-15T15:15:03.383Z,16.98
2022-12-15T15:17:51.324Z,15.55
2022-12-15T15:20:30.712Z,14.52
2022-12-15T15:23:19.251Z,17.52
2022-12-15T15:25:57.877Z,17.60
2022-12-15T15:28:27.866Z,16.27
2022-12-15T15:31:07.036Z,14.48
2022-12-15T15:33:34.306Z,14.00
2022-12-15T15:36:03.105Z,13.25
2022-12-15T15:38:35.768Z,12.05
2022-12-15T15:41:16.940Z,12.07
2022-12-15T15:43:44.411Z,11.38
2022-12-15T15:46:15.945Z,12.73
2022-12-15T15:48:46.341Z,12.77
2022-12-15T15:51:14.294Z,12.05
2022-12-15T15:53:41.783Z,15.90
2022-12-15T15:56:12.758Z,18.52
2022-12-15T15:58:39.966Z,20.40
2022-12-15T16:01:12.935Z,21.83
2022-12-15T16:03:40.938Z,68.70
2022-12-15T16:06:19.103Z,73.95
2022-12-15T16:08:53.028Z,25.35
2022-12-15T16:11:23.292Z,12.57
2022-12-15T16:13:50.362Z,16.20
2022-12-15T16:16:24.365Z,21.40
2022-12-15T16:18:51.705Z,14.20
2022-12-15T16:21:23.184Z,12.65
2022-12-15T16:23:50.331Z,11.48
2022-12-15T16:26:34.572Z,10.88
2022-12-15T16:29:01.645Z,16.63
2022-12-15T16:31:35.660Z,12.02
2022-12-15T16:34:07.955Z,10.82
2022-12-15T16:36:35.427Z,12.30
2022-12-15T16:39:03.155Z,12.63
2022-12-15T16:41:30.214Z,12.25
2022-12-15T16:44:00.152Z,12.85
2022-12-15T16:46:27.424Z,11.88
2022-12-15T16:48:54.839Z,15.95
2022-12-15T16:51:37.255Z,11.45
2022-12-15T16:54:04.746Z,12.07
2022-12-15T16:56:31.899Z,11.98
2022-12-15T16:59:30.785Z,12.00
2022-12-15T17:01:46.397Z,12.65
2022-12-15T17:04:13.893Z,12.55
2022-12-15T17:06:40.906Z,12.07
2022-12-15T17:09:13.636Z,11.02
2022-12-15T17:11:40.770Z,12.27
2022-12-15T17:14:10.832Z,12.30
2022-12-15T17:16:38.159Z,10.75
2022-12-15T17:19:06.399Z,11.40
2022-12-15T17:21:47.854Z,13.02
2022-12-15T17:24:18.359Z,12.88
2022-12-15T17:26:45.782Z,13.65
2022-12-15T17:29:22.671Z,12.32
2022-12-15T17:31:50.144Z,11.40
2022-12-15T17:34:34.898Z,13.85
2022-12-15T17:37:05.057Z,11.52
2022-12-15T17:39:34.794Z,12.55
2022-12-15T17:42:03.061Z,11.90
2022-12-15T17:44:38.280Z,13.02
2022-12-15T17:47:08.536Z,11.90
2022-12-15T17:49:37.968Z,11.63
2022-12-15T17:52:34.675Z,13.05
2022-12-15T17:55:03.436Z,12.32
2022-12-15T17:57:33.910Z,13.15
2022-12-15T18:00:02.171Z,12.60
2022-12-15T18:02:29.745Z,14.20
2022-12-15T18:04:59.717Z,12.05
2022-12-15T18:07:26.812Z,12.27
2022-12-15T18:09:53.920Z,12.20
2022-12-15T18:12:24.631Z,12.10
2022-12-15T18:14:52.822Z,15.02
2022-12-15T18:17:20.190Z,19.27
2022-12-15T18:19:47.422Z,14.45
2022-12-15T18:22:22.826Z,14.98
2022-12-15T18:24:52.845Z,14.73
2022-12-15T18:27:26.497Z,15.00
2022-12-15T18:30:02.150Z,13.05
2022-12-15T18:32:38.413Z,16.42
2022-12-15T18:35:26.594Z,13.68
2022-12-15T18:37:54.083Z,14.30
2022-12-15T18:40:24.179Z,13.27
2022-12-15T18:42:51.600Z,14.60
2022-12-15T18:45:28.322Z,12.52
2022-12-15T18:47:55.874Z,15.95
2022-12-15T18:50:26.513Z,11.93
2022-12-15T18:53:02.319Z,13.65
2022-12-15T18:55:36.335Z,12.93
2022-12-15T18:58:03.605Z,14.07
2022-12-15T19:00:31.329Z,13.75
2022-12-15T19:03:00.405Z,15.30
2022-12-15T19:05:29.236Z,16.50
2022-12-15T19:08:04.310Z,15.23
2022-12-15T19:13:00.941Z,16.23
2022-12-15T19:15:28.157Z,16.35
2022-12-15T19:18:27.753Z,13.68
2022-12-15T19:21:13.730Z,17.05
2022-12-15T19:23:41.127Z,13.55
2022-12-15T19:26:10.258Z,13.48
2022-12-15T19:28:37.391Z,16.30
2022-12-15T19:31:04.698Z,17.02
2022-12-15T19:33:32.105Z,15.48
2022-12-15T19:35:59.646Z,14.23
2022-12-15T19:38:31.375Z,15.60
2022-12-15T19:41:00.246Z,19.65
2022-12-15T19:43:28.708Z,15.48
2022-12-15T19:45:56.101Z,16.08
2022-12-15T19:48:24.381Z,15.02
2022-12-15T19:50:54.925Z,14.13
2022-12-15T19:53:26.215Z,14.18
2022-12-15T19:55:57.078Z,14.40
2022-12-15T19:58:37.315Z,16.55
2022-12-15T20:01:10.710Z,14.55
2022-12-15T20:03:39.062Z,16.35
2022-12-15T20:06:20.790Z,16.67
2022-12-15T20:08:51.125Z,15.30
2022-12-15T20:11:29.070Z,14.52
2022-12-15T20:13:56.699Z,15.20
2022-12-15T20:16:25.025Z,15.70
2022-12-15T20:18:55.053Z,17.25
2022-12-15T20:21:26.605Z,16.92
2022-12-15T20:24:00.664Z,16.73
2022-12-15T20:26:30.411Z,16.33
2022-12-15T20:28:58.313Z,29.88
2022-12-15T20:31:26.204Z,33.28
2022-12-15T20:33:54.161Z,21.42
2022-12-15T20:36:30.505Z,19.40
2022-12-15T20:38:57.831Z,20.70
2022-12-15T20:41:27.840Z,17.15
2022-12-15T20:43:55.879Z,18.90
2022-12-15T20:46:28.491Z,19.00
2022-12-15T20:48:56.750Z,19.48
2022-12-15T20:51:32.420Z,17.77
2022-12-15T20:54:01.891Z,16.90
2022-12-15T20:56:29.327Z,17.15
2022-12-15T20:58:58.438Z,18.88
2022-12-15T21:01:33.118Z,18.42
2022-12-15T21:04:03.136Z,18.23
2022-12-15T21:06:30.996Z,16.75
2022-12-15T21:08:58.176Z,16.30
2022-12-15T21:11:27.706Z,16.52
2022-12-15T21:13:56.882Z,17.45
2022-12-15T21:16:26.743Z,16.40
2022-12-15T21:19:19.351Z,16.67
2022-12-15T21:21:49.109Z,16.17
2022-12-15T21:24:26.743Z,16.95
2022-12-15T21:29:24.799Z,15.77
2022-12-15T21:31:52.501Z,16.35
2022-12-15T21:34:19.571Z,17.42
2022-12-15T21:36:50.610Z,17.73
2022-12-15T21:39:30.156Z,16.30
2022-12-15T21:42:07.388Z,20.55
2022-12-15T21:44:35.595Z,21.92
2022-12-15T21:47:05.652Z,18.08
2022-12-15T21:49:34.335Z,21.85
2022-12-15T21:52:01.800Z,19.95
2022-12-15T21:54:35.097Z,22.17
2022-12-15T21:57:05.383Z,22.30
2022-12-15T21:59:33.468Z,19.42
2022-12-15T22:02:01.563Z,19.10
2022-12-15T22:04:35.937Z,18.25
2022-12-15T22:07:03.316Z,16.25
2022-12-15T22:09:30.479Z,17.15
2022-12-15T22:12:01.564Z,16.23
2022-12-15T22:14:32.321Z,14.65
2022-12-15T22:17:01.189Z,12.65
2022-12-15T22:19:28.574Z,17.38
2022-12-15T22:21:55.747Z,15.65
2022-12-15T22:24:22.996Z,14.60
2022-12-15T22:26:50.445Z,14.50
2022-12-15T22:29:22.816Z,15.93
2022-12-15T22:31:50.918Z,15.10
2022-12-15T22:34:23.072Z,14.30
2022-12-15T22:36:51.074Z,16.23
2022-12-15T22:39:19.455Z,15.23
2022-12-15T22:41:50.087Z,16.67
2022-12-15T22:44:32.342Z,19.13
2022-12-15T22:47:01.813Z,16.60
2022-12-15T22:49:36.771Z,18.10
2022-12-15T22:54:41.315Z,18.55
2022-12-15T22:57:23.038Z,17.95
2022-12-15T23:00:00.772Z,16.95
2022-12-15T23:02:39.164Z,18.17
2022-12-15T23:05:10.045Z,18.13
2022-12-15T23:07:37.199Z,15.10
2022-12-15T23:10:23.669Z,17.65
2022-12-15T23:12:54.716Z,16.95
2022-12-15T23:15:42.763Z,19.15
2022-12-15T23:18:10.288Z,18.33
2022-12-15T23:20:38.122Z,15.57
2022-12-15T23:23:05.912Z,14.68
2022-12-15T23:25:33.345Z,16.65
2022-12-15T23:28:00.983Z,18.42
2022-12-15T23:30:28.308Z,16.58
2022-12-15T23:32:55.606Z,18.63
2022-12-15T23:35:23.029Z,16.85
2022-12-15T23:37:50.274Z,16.80
2022-12-15T23:40:21.510Z,16.75
2022-12-15T23:42:49.774Z,16.77
2022-12-15T23:45:18.419Z,17.27
2022-12-15T23:47:45.870Z,18.98
2022-12-15T23:50:13.030Z,18.95
2022-12-15T23:52:40.944Z,17.70
2022-12-15T23:55:10.332Z,16.90
2022-12-15T23:57:38.646Z,16.83
